Quincy, IL

9:38 PM CST on February 10, 2016 (GMT -0600)
S 28th Street | | Change Station
CLOSE
Current Station
Personal Weather Station
Location: Quincy, IL
Elevation: 610 ft
Nearby Weather Stations

Elev 610 ft 39.91 °N, 91.37 °W | Updated 25 seconds ago

Overcast
Overcast
21.0 °F
Feels Like 21 °F
N
2.7
Wind Variable Wind from NW
Gusts 3.1 mph

Today
High -- | Low -- °F
--% Chance of Precip.
Yesterday
High -- | Low -- °F
Precip. -- in
Pressure 30.14 in
Visibility 10.0 miles
Clouds Overcast 4900 ft
Windchill 21 °F
Dew Point 8 °F
Humidity 57%
Rainfall 0.00 in
Snow Depth Not available.
7:04 AM 5:34 PM
Waxing Crescent, 9% visible
METAR KHAE 110315Z AUTO 08003KT 10SM OVC049 M05/M07 A3014 RMK AO2
Pressure 30.14 in
Visibility 10.0 miles
Clouds Overcast 4900 ft
Windchill 21 °F
Dew Point 8 °F
Humidity 57%
Rainfall 0.00 in
Snow Depth Not available.
7:04 AM 5:34 PM
Waxing Crescent, 9% visible
METAR KHAE 110315Z AUTO 08003KT 10SM OVC049 M05/M07 A3014 RMK AO2

10-Day Weather Forecast

Almanac

Astronomy

Feb. 10, 2016 Rise Set
Actual Time
Civil Twilight
Nautical Twilight
Astronomical Twilight
Moon
Length of Visible Light
Length of Day
Tomorrow will be .
, % of the Moon is Illuminated

Today's Extremes

State Highs State Lows

Community

WunderPhotos

Upload Photos

1,891,994 photos uploaded!

WunderBlog® & News

Nearby

Air Quality

  Air Quality AQ Index Pollutant
Not available.

Snow Depth

Station Depth Elevation

Earthquake Activity

City Distance Mag. Time & Date
Minimum magnitude displayed is 2.5.

Coastal Water Temperatures

Place Temperature

Stations

Nearby Weather Stations

Station Location Temp. Windchill Dew Point Humidity Wind Precip. Elev Updated Type
                   

Watches & Warnings

There are currently no watches in effect.